sensor_id;sensor_type;location;lat;lon;timestamp;P1;durP1;ratioP1;P2;durP2;ratioP2
8871;SDS011;4472;52.092;9.820;2022-10-15T00:01:39;6.80;;;6.10;;
8871;SDS011;4472;52.092;9.820;2022-10-15T00:04:27;7.60;;;5.87;;
8871;SDS011;4472;52.092;9.820;2022-10-15T00:07:16;7.93;;;6.47;;
8871;SDS011;4472;52.092;9.820;2022-10-15T00:10:03;6.53;;;5.93;;
8871;SDS011;4472;52.092;9.820;2022-10-15T00:12:52;7.40;;;6.43;;
8871;SDS011;4472;52.092;9.820;2022-10-15T00:15:39;7.73;;;6.60;;
8871;SDS011;4472;52.092;9.820;2022-10-15T00:18:27;7.53;;;6.80;;
8871;SDS011;4472;52.092;9.820;2022-10-15T00:21:15;7.53;;;6.73;;
8871;SDS011;4472;52.092;9.820;2022-10-15T00:24:06;9.33;;;6.90;;
8871;SDS011;4472;52.092;9.820;2022-10-15T00:26:53;8.40;;;7.60;;
8871;SDS011;4472;52.092;9.820;2022-10-15T00:29:42;10.03;;;7.50;;
8871;SDS011;4472;52.092;9.820;2022-10-15T00:32:29;8.50;;;7.60;;
8871;SDS011;4472;52.092;9.820;2022-10-15T00:35:17;8.70;;;7.80;;
8871;SDS011;4472;52.092;9.820;2022-10-15T00:38:04;8.83;;;8.03;;
8871;SDS011;4472;52.092;9.820;2022-10-15T00:40:51;11.70;;;8.57;;
8871;SDS011;4472;52.092;9.820;2022-10-15T00:43:40;9.27;;;8.33;;
8871;SDS011;4472;52.092;9.820;2022-10-15T00:46:31;8.93;;;8.03;;
8871;SDS011;4472;52.092;9.820;2022-10-15T00:49:21;10.57;;;8.30;;
8871;SDS011;4472;52.092;9.820;2022-10-15T00:52:13;9.93;;;8.93;;
8871;SDS011;4472;52.092;9.820;2022-10-15T00:55:05;12.30;;;9.43;;
8871;SDS011;4472;52.092;9.820;2022-10-15T00:57:57;11.03;;;8.90;;
8871;SDS011;4472;52.092;9.820;2022-10-15T01:00:47;12.23;;;9.33;;
8871;SDS011;4472;52.092;9.820;2022-10-15T01:03:35;8.97;;;8.07;;
8871;SDS011;4472;52.092;9.820;2022-10-15T01:06:23;9.30;;;8.40;;
8871;SDS011;4472;52.092;9.820;2022-10-15T01:09:11;9.90;;;8.80;;
8871;SDS011;4472;52.092;9.820;2022-10-15T01:11:59;9.90;;;8.07;;
8871;SDS011;4472;52.092;9.820;2022-10-15T01:14:48;9.23;;;8.20;;
8871;SDS011;4472;52.092;9.820;2022-10-15T01:17:45;8.73;;;7.83;;
8871;SDS011;4472;52.092;9.820;2022-10-15T01:23:59;11.50;;;9.30;;
8871;SDS011;4472;52.092;9.820;2022-10-15T01:27:15;10.40;;;9.30;;
8871;SDS011;4472;52.092;9.820;2022-10-15T01:30:20;10.50;;;9.00;;
8871;SDS011;4472;52.092;9.820;2022-10-15T01:33:23;10.53;;;9.27;;
8871;SDS011;4472;52.092;9.820;2022-10-15T01:36:17;10.20;;;8.97;;
8871;SDS011;4472;52.092;9.820;2022-10-15T01:39:11;13.53;;;10.20;;
8871;SDS011;4472;52.092;9.820;2022-10-15T01:42:04;15.00;;;10.63;;
8871;SDS011;4472;52.092;9.820;2022-10-15T01:44:59;11.33;;;10.13;;
8871;SDS011;4472;52.092;9.820;2022-10-15T01:47:50;11.47;;;10.27;;
8871;SDS011;4472;52.092;9.820;2022-10-15T01:50:41;13.77;;;9.70;;
8871;SDS011;4472;52.092;9.820;2022-10-15T01:53:31;10.37;;;9.27;;
8871;SDS011;4472;52.092;9.820;2022-10-15T01:56:20;11.67;;;10.20;;
8871;SDS011;4472;52.092;9.820;2022-10-15T01:59:09;13.57;;;9.93;;
8871;SDS011;4472;52.092;9.820;2022-10-15T02:01:57;12.53;;;9.63;;
8871;SDS011;4472;52.092;9.820;2022-10-15T02:04:45;11.57;;;10.37;;
8871;SDS011;4472;52.092;9.820;2022-10-15T02:07:35;13.23;;;10.43;;
8871;SDS011;4472;52.092;9.820;2022-10-15T02:10:30;12.67;;;10.27;;
8871;SDS011;4472;52.092;9.820;2022-10-15T02:13:25;14.20;;;10.97;;
8871;SDS011;4472;52.092;9.820;2022-10-15T02:16:22;12.77;;;11.37;;
8871;SDS011;4472;52.092;9.820;2022-10-15T02:19:14;13.27;;;11.43;;
8871;SDS011;4472;52.092;9.820;2022-10-15T02:22:08;16.37;;;11.77;;
8871;SDS011;4472;52.092;9.820;2022-10-15T02:25:02;17.90;;;12.50;;
8871;SDS011;4472;52.092;9.820;2022-10-15T02:27:53;18.33;;;13.37;;
8871;SDS011;4472;52.092;9.820;2022-10-15T02:30:44;20.20;;;14.60;;
8871;SDS011;4472;52.092;9.820;2022-10-15T02:33:33;19.13;;;14.70;;
8871;SDS011;4472;52.092;9.820;2022-10-15T02:36:22;19.20;;;14.53;;
8871;SDS011;4472;52.092;9.820;2022-10-15T02:39:11;17.70;;;14.70;;
8871;SDS011;4472;52.092;9.820;2022-10-15T02:42:02;21.97;;;15.10;;
8871;SDS011;4472;52.092;9.820;2022-10-15T02:44:49;21.03;;;15.23;;
8871;SDS011;4472;52.092;9.820;2022-10-15T02:47:37;19.27;;;14.60;;
8871;SDS011;4472;52.092;9.820;2022-10-15T02:50:24;19.60;;;15.73;;
8871;SDS011;4472;52.092;9.820;2022-10-15T02:53:11;19.53;;;15.17;;
8871;SDS011;4472;52.092;9.820;2022-10-15T02:56:00;21.03;;;15.03;;
8871;SDS011;4472;52.092;9.820;2022-10-15T02:58:47;20.10;;;14.97;;
8871;SDS011;4472;52.092;9.820;2022-10-15T03:01:34;20.40;;;15.00;;
8871;SDS011;4472;52.092;9.820;2022-10-15T03:04:21;17.70;;;14.17;;
8871;SDS011;4472;52.092;9.820;2022-10-15T03:07:08;19.10;;;14.93;;
8871;SDS011;4472;52.092;9.820;2022-10-15T03:09:55;19.60;;;14.30;;
8871;SDS011;4472;52.092;9.820;2022-10-15T03:12:45;23.10;;;15.47;;
8871;SDS011;4472;52.092;9.820;2022-10-15T03:15:32;20.67;;;14.83;;
8871;SDS011;4472;52.092;9.820;2022-10-15T03:18:19;20.43;;;15.07;;
8871;SDS011;4472;52.092;9.820;2022-10-15T03:21:06;21.37;;;14.67;;
8871;SDS011;4472;52.092;9.820;2022-10-15T03:23:53;22.77;;;14.63;;
8871;SDS011;4472;52.092;9.820;2022-10-15T03:26:41;17.93;;;13.50;;
8871;SDS011;4472;52.092;9.820;2022-10-15T03:29:29;19.17;;;14.30;;
8871;SDS011;4472;52.092;9.820;2022-10-15T03:32:16;20.73;;;14.90;;
8871;SDS011;4472;52.092;9.820;2022-10-15T03:35:04;21.30;;;15.73;;
8871;SDS011;4472;52.092;9.820;2022-10-15T03:37:52;17.83;;;14.10;;
8871;SDS011;4472;52.092;9.820;2022-10-15T03:40:39;18.87;;;13.73;;
8871;SDS011;4472;52.092;9.820;2022-10-15T03:43:26;18.10;;;13.97;;
8871;SDS011;4472;52.092;9.820;2022-10-15T03:46:15;18.37;;;14.30;;
8871;SDS011;4472;52.092;9.820;2022-10-15T03:49:02;21.97;;;15.70;;
8871;SDS011;4472;52.092;9.820;2022-10-15T03:51:49;22.23;;;15.40;;
8871;SDS011;4472;52.092;9.820;2022-10-15T03:54:36;19.13;;;14.33;;
8871;SDS011;4472;52.092;9.820;2022-10-15T03:57:23;20.93;;;14.37;;
8871;SDS011;4472;52.092;9.820;2022-10-15T04:00:11;21.77;;;15.10;;
8871;SDS011;4472;52.092;9.820;2022-10-15T04:03:00;29.40;;;17.23;;
8871;SDS011;4472;52.092;9.820;2022-10-15T04:05:51;23.80;;;16.97;;
8871;SDS011;4472;52.092;9.820;2022-10-15T04:08:38;23.90;;;17.33;;
8871;SDS011;4472;52.092;9.820;2022-10-15T04:11:25;18.37;;;15.10;;
8871;SDS011;4472;52.092;9.820;2022-10-15T04:14:12;23.87;;;17.63;;
8871;SDS011;4472;52.092;9.820;2022-10-15T04:17:00;25.67;;;19.57;;
8871;SDS011;4472;52.092;9.820;2022-10-15T04:19:48;29.43;;;19.03;;
8871;SDS011;4472;52.092;9.820;2022-10-15T04:22:35;50.97;;;35.70;;
8871;SDS011;4472;52.092;9.820;2022-10-15T04:25:23;87.97;;;49.03;;
8871;SDS011;4472;52.092;9.820;2022-10-15T04:28:10;70.70;;;43.53;;
8871;SDS011;4472;52.092;9.820;2022-10-15T04:30:57;46.67;;;32.07;;
8871;SDS011;4472;52.092;9.820;2022-10-15T04:33:46;27.57;;;20.07;;
8871;SDS011;4472;52.092;9.820;2022-10-15T04:36:36;45.23;;;28.50;;
8871;SDS011;4472;52.092;9.820;2022-10-15T04:39:23;62.47;;;36.40;;
8871;SDS011;4472;52.092;9.820;2022-10-15T04:42:10;49.60;;;30.50;;
8871;SDS011;4472;52.092;9.820;2022-10-15T04:44:58;25.90;;;17.83;;
8871;SDS011;4472;52.092;9.820;2022-10-15T04:47:45;27.40;;;18.80;;
8871;SDS011;4472;52.092;9.820;2022-10-15T04:50:32;22.13;;;16.50;;
8871;SDS011;4472;52.092;9.820;2022-10-15T04:53:20;23.13;;;16.70;;
8871;SDS011;4472;52.092;9.820;2022-10-15T04:56:11;27.33;;;18.17;;
8871;SDS011;4472;52.092;9.820;2022-10-15T04:59:04;42.43;;;23.43;;
8871;SDS011;4472;52.092;9.820;2022-10-15T05:01:52;30.07;;;18.80;;
8871;SDS011;4472;52.092;9.820;2022-10-15T05:04:40;23.80;;;16.30;;
8871;SDS011;4472;52.092;9.820;2022-10-15T05:07:27;98.30;;;44.87;;
8871;SDS011;4472;52.092;9.820;2022-10-15T05:10:15;137.17;;;59.47;;
8871;SDS011;4472;52.092;9.820;2022-10-15T05:13:02;30.57;;;20.43;;
8871;SDS011;4472;52.092;9.820;2022-10-15T05:15:49;66.07;;;33.57;;
8871;SDS011;4472;52.092;9.820;2022-10-15T05:18:37;51.03;;;28.70;;
8871;SDS011;4472;52.092;9.820;2022-10-15T05:21:24;31.40;;;18.00;;
8871;SDS011;4472;52.092;9.820;2022-10-15T05:24:12;19.90;;;15.23;;
8871;SDS011;4472;52.092;9.820;2022-10-15T05:27:00;25.37;;;16.93;;
8871;SDS011;4472;52.092;9.820;2022-10-15T05:29:51;23.03;;;16.63;;
8871;SDS011;4472;52.092;9.820;2022-10-15T05:32:38;29.57;;;18.30;;
8871;SDS011;4472;52.092;9.820;2022-10-15T05:35:25;23.37;;;15.73;;
8871;SDS011;4472;52.092;9.820;2022-10-15T05:38:12;24.27;;;17.77;;
8871;SDS011;4472;52.092;9.820;2022-10-15T05:40:59;27.57;;;19.10;;
8871;SDS011;4472;52.092;9.820;2022-10-15T05:43:48;31.83;;;18.87;;
8871;SDS011;4472;52.092;9.820;2022-10-15T05:46:36;28.27;;;18.50;;
8871;SDS011;4472;52.092;9.820;2022-10-15T05:49:24;34.07;;;20.73;;
8871;SDS011;4472;52.092;9.820;2022-10-15T05:52:11;26.93;;;18.07;;
8871;SDS011;4472;52.092;9.820;2022-10-15T05:54:58;30.20;;;18.33;;
8871;SDS011;4472;52.092;9.820;2022-10-15T05:57:45;25.00;;;17.60;;
8871;SDS011;4472;52.092;9.820;2022-10-15T06:00:34;28.47;;;19.20;;
8871;SDS011;4472;52.092;9.820;2022-10-15T06:03:24;23.93;;;18.10;;
8871;SDS011;4472;52.092;9.820;2022-10-15T06:06:12;27.73;;;18.27;;
8871;SDS011;4472;52.092;9.820;2022-10-15T06:09:00;28.53;;;19.47;;
8871;SDS011;4472;52.092;9.820;2022-10-15T06:11:47;30.73;;;19.40;;
8871;SDS011;4472;52.092;9.820;2022-10-15T06:14:35;33.97;;;20.87;;
8871;SDS011;4472;52.092;9.820;2022-10-15T06:17:23;31.17;;;19.63;;
8871;SDS011;4472;52.092;9.820;2022-10-15T06:20:13;32.57;;;21.40;;
8871;SDS011;4472;52.092;9.820;2022-10-15T06:23:01;32.70;;;21.10;;
8871;SDS011;4472;52.092;9.820;2022-10-15T06:25:49;31.73;;;22.30;;
8871;SDS011;4472;52.092;9.820;2022-10-15T06:28:37;30.73;;;21.27;;
8871;SDS011;4472;52.092;9.820;2022-10-15T06:31:24;31.80;;;21.50;;
8871;SDS011;4472;52.092;9.820;2022-10-15T06:34:13;31.87;;;22.43;;
8871;SDS011;4472;52.092;9.820;2022-10-15T06:37:00;31.77;;;21.53;;
8871;SDS011;4472;52.092;9.820;2022-10-15T06:39:47;29.67;;;20.97;;
8871;SDS011;4472;52.092;9.820;2022-10-15T06:42:34;30.23;;;21.23;;
8871;SDS011;4472;52.092;9.820;2022-10-15T06:45:21;30.17;;;20.77;;
8871;SDS011;4472;52.092;9.820;2022-10-15T06:48:09;30.60;;;21.50;;
8871;SDS011;4472;52.092;9.820;2022-10-15T06:50:58;33.90;;;21.80;;
8871;SDS011;4472;52.092;9.820;2022-10-15T06:53:46;31.20;;;20.90;;
8871;SDS011;4472;52.092;9.820;2022-10-15T06:56:33;31.63;;;21.57;;
8871;SDS011;4472;52.092;9.820;2022-10-15T06:59:20;29.33;;;21.03;;
8871;SDS011;4472;52.092;9.820;2022-10-15T07:02:07;32.13;;;20.80;;
8871;SDS011;4472;52.092;9.820;2022-10-15T07:04:55;29.80;;;20.63;;
8871;SDS011;4472;52.092;9.820;2022-10-15T07:07:43;30.47;;;21.53;;
8871;SDS011;4472;52.092;9.820;2022-10-15T07:10:37;32.40;;;21.80;;
8871;SDS011;4472;52.092;9.820;2022-10-15T07:13:24;28.63;;;21.30;;
8871;SDS011;4472;52.092;9.820;2022-10-15T07:16:11;32.33;;;22.00;;
8871;SDS011;4472;52.092;9.820;2022-10-15T07:18:58;31.23;;;21.77;;
8871;SDS011;4472;52.092;9.820;2022-10-15T07:21:45;30.70;;;21.60;;
8871;SDS011;4472;52.092;9.820;2022-10-15T07:24:34;29.67;;;21.63;;
8871;SDS011;4472;52.092;9.820;2022-10-15T07:27:21;30.20;;;21.17;;
8871;SDS011;4472;52.092;9.820;2022-10-15T07:30:09;34.13;;;24.17;;
8871;SDS011;4472;52.092;9.820;2022-10-15T07:32:57;32.57;;;23.17;;
8871;SDS011;4472;52.092;9.820;2022-10-15T07:35:44;38.23;;;26.70;;
8871;SDS011;4472;52.092;9.820;2022-10-15T07:38:31;38.73;;;26.83;;
8871;SDS011;4472;52.092;9.820;2022-10-15T07:41:20;26.67;;;20.63;;
8871;SDS011;4472;52.092;9.820;2022-10-15T07:44:07;28.33;;;20.50;;
8871;SDS011;4472;52.092;9.820;2022-10-15T07:46:55;24.70;;;19.23;;
8871;SDS011;4472;52.092;9.820;2022-10-15T07:49:42;23.70;;;18.40;;
8871;SDS011;4472;52.092;9.820;2022-10-15T07:52:29;23.77;;;18.13;;
8871;SDS011;4472;52.092;9.820;2022-10-15T07:55:16;23.43;;;17.33;;
8871;SDS011;4472;52.092;9.820;2022-10-15T07:58:05;23.07;;;17.90;;
8871;SDS011;4472;52.092;9.820;2022-10-15T08:00:53;23.73;;;18.37;;
8871;SDS011;4472;52.092;9.820;2022-10-15T08:03:40;22.37;;;18.07;;
8871;SDS011;4472;52.092;9.820;2022-10-15T08:06:27;23.50;;;18.17;;
8871;SDS011;4472;52.092;9.820;2022-10-15T08:09:16;25.87;;;20.20;;
8871;SDS011;4472;52.092;9.820;2022-10-15T08:12:04;23.40;;;18.67;;
8871;SDS011;4472;52.092;9.820;2022-10-15T08:14:53;24.17;;;19.10;;
8871;SDS011;4472;52.092;9.820;2022-10-15T08:17:40;23.07;;;19.07;;
8871;SDS011;4472;52.092;9.820;2022-10-15T08:20:27;21.43;;;18.10;;
8871;SDS011;4472;52.092;9.820;2022-10-15T08:23:15;22.53;;;18.40;;
8871;SDS011;4472;52.092;9.820;2022-10-15T08:26:02;25.93;;;20.13;;
8871;SDS011;4472;52.092;9.820;2022-10-15T08:28:50;25.13;;;18.47;;
8871;SDS011;4472;52.092;9.820;2022-10-15T08:31:39;23.77;;;19.30;;
8871;SDS011;4472;52.092;9.820;2022-10-15T08:34:26;20.73;;;17.20;;
8871;SDS011;4472;52.092;9.820;2022-10-15T08:37:13;19.33;;;15.87;;
8871;SDS011;4472;52.092;9.820;2022-10-15T08:40:00;21.03;;;17.13;;
8871;SDS011;4472;52.092;9.820;2022-10-15T08:42:48;18.77;;;15.87;;
8871;SDS011;4472;52.092;9.820;2022-10-15T08:45:37;20.07;;;16.10;;
8871;SDS011;4472;52.092;9.820;2022-10-15T08:48:31;20.63;;;15.90;;
8871;SDS011;4472;52.092;9.820;2022-10-15T08:51:21;17.87;;;15.17;;
8871;SDS011;4472;52.092;9.820;2022-10-15T08:54:12;19.47;;;14.10;;
8871;SDS011;4472;52.092;9.820;2022-10-15T08:57:06;18.07;;;14.60;;
8871;SDS011;4472;52.092;9.820;2022-10-15T09:00:00;18.03;;;15.37;;
8871;SDS011;4472;52.092;9.820;2022-10-15T09:02:53;20.23;;;15.23;;
8871;SDS011;4472;52.092;9.820;2022-10-15T09:05:47;19.20;;;14.90;;
8871;SDS011;4472;52.092;9.820;2022-10-15T09:08:45;19.23;;;15.67;;
8871;SDS011;4472;52.092;9.820;2022-10-15T09:11:41;17.63;;;15.03;;
8871;SDS011;4472;52.092;9.820;2022-10-15T09:14:36;19.00;;;15.07;;
8871;SDS011;4472;52.092;9.820;2022-10-15T09:17:26;17.37;;;14.47;;
8871;SDS011;4472;52.092;9.820;2022-10-15T09:20:18;18.93;;;15.23;;
8871;SDS011;4472;52.092;9.820;2022-10-15T09:23:12;18.53;;;15.37;;
8871;SDS011;4472;52.092;9.820;2022-10-15T09:26:05;17.83;;;14.00;;
8871;SDS011;4472;52.092;9.820;2022-10-15T09:29:02;15.33;;;12.30;;
8871;SDS011;4472;52.092;9.820;2022-10-15T09:32:04;15.20;;;12.37;;
8871;SDS011;4472;52.092;9.820;2022-10-15T09:35:00;15.03;;;11.17;;
8871;SDS011;4472;52.092;9.820;2022-10-15T09:37:58;12.67;;;11.37;;
8871;SDS011;4472;52.092;9.820;2022-10-15T09:40:55;14.13;;;12.03;;
8871;SDS011;4472;52.092;9.820;2022-10-15T09:43:54;15.17;;;12.27;;
8871;SDS011;4472;52.092;9.820;2022-10-15T09:46:44;14.87;;;12.40;;
8871;SDS011;4472;52.092;9.820;2022-10-15T09:49:32;16.57;;;13.57;;
8871;SDS011;4472;52.092;9.820;2022-10-15T09:52:20;14.67;;;12.90;;
8871;SDS011;4472;52.092;9.820;2022-10-15T09:55:17;12.60;;;11.30;;
8871;SDS011;4472;52.092;9.820;2022-10-15T09:58:20;14.07;;;12.20;;
8871;SDS011;4472;52.092;9.820;2022-10-15T10:01:15;13.23;;;11.30;;
8871;SDS011;4472;52.092;9.820;2022-10-15T10:04:11;12.50;;;10.90;;
8871;SDS011;4472;52.092;9.820;2022-10-15T10:07:03;12.33;;;11.03;;
8871;SDS011;4472;52.092;9.820;2022-10-15T10:09:53;13.77;;;10.73;;
8871;SDS011;4472;52.092;9.820;2022-10-15T10:12:41;12.93;;;11.20;;
8871;SDS011;4472;52.092;9.820;2022-10-15T10:15:31;12.53;;;10.57;;
8871;SDS011;4472;52.092;9.820;2022-10-15T10:18:21;11.90;;;10.33;;
8871;SDS011;4472;52.092;9.820;2022-10-15T10:21:19;13.23;;;10.53;;
8871;SDS011;4472;52.092;9.820;2022-10-15T10:24:17;11.90;;;10.37;;
8871;SDS011;4472;52.092;9.820;2022-10-15T10:27:11;11.73;;;10.63;;
8871;SDS011;4472;52.092;9.820;2022-10-15T10:30:13;11.27;;;9.87;;
8871;SDS011;4472;52.092;9.820;2022-10-15T10:33:02;11.03;;;9.93;;
8871;SDS011;4472;52.092;9.820;2022-10-15T10:35:50;12.07;;;10.87;;
8871;SDS011;4472;52.092;9.820;2022-10-15T10:38:38;10.90;;;9.63;;
8871;SDS011;4472;52.092;9.820;2022-10-15T10:41:28;9.43;;;8.53;;
8871;SDS011;4472;52.092;9.820;2022-10-15T10:44:34;9.70;;;8.80;;
8871;SDS011;4472;52.092;9.820;2022-10-15T10:47:23;10.00;;;8.30;;
8871;SDS011;4472;52.092;9.820;2022-10-15T10:50:26;12.90;;;7.83;;
8871;SDS011;4472;52.092;9.820;2022-10-15T10:53:19;8.43;;;7.60;;
8871;SDS011;4472;52.092;9.820;2022-10-15T10:56:08;8.40;;;7.60;;
8871;SDS011;4472;52.092;9.820;2022-10-15T10:58:59;7.60;;;6.90;;
8871;SDS011;4472;52.092;9.820;2022-10-15T11:01:49;7.53;;;6.70;;
8871;SDS011;4472;52.092;9.820;2022-10-15T11:04:37;7.17;;;6.47;;
8871;SDS011;4472;52.092;9.820;2022-10-15T11:07:27;6.97;;;6.27;;
8871;SDS011;4472;52.092;9.820;2022-10-15T11:10:22;7.70;;;6.73;;
8871;SDS011;4472;52.092;9.820;2022-10-15T11:13:23;6.67;;;6.07;;
8871;SDS011;4472;52.092;9.820;2022-10-15T11:16:20;7.33;;;5.53;;
8871;SDS011;4472;52.092;9.820;2022-10-15T11:19:20;7.90;;;7.10;;
8871;SDS011;4472;52.092;9.820;2022-10-15T11:22:21;7.30;;;6.60;;
8871;SDS011;4472;52.092;9.820;2022-10-15T11:25:20;6.33;;;5.83;;
8871;SDS011;4472;52.092;9.820;2022-10-15T11:28:22;5.43;;;4.90;;
8871;SDS011;4472;52.092;9.820;2022-10-15T11:31:18;6.33;;;5.33;;
8871;SDS011;4472;52.092;9.820;2022-10-15T11:34:17;5.33;;;4.83;;
8871;SDS011;4472;52.092;9.820;2022-10-15T11:37:20;4.63;;;4.23;;
8871;SDS011;4472;52.092;9.820;2022-10-15T11:40:20;5.00;;;4.60;;
8871;SDS011;4472;52.092;9.820;2022-10-15T11:43:30;4.87;;;4.40;;
8871;SDS011;4472;52.092;9.820;2022-10-15T11:46:29;5.80;;;5.00;;
8871;SDS011;4472;52.092;9.820;2022-10-15T11:49:25;6.27;;;4.70;;
8871;SDS011;4472;52.092;9.820;2022-10-15T11:52:26;4.67;;;4.27;;
8871;SDS011;4472;52.092;9.820;2022-10-15T11:55:26;4.40;;;4.10;;
8871;SDS011;4472;52.092;9.820;2022-10-15T11:58:25;3.87;;;3.57;;
8871;SDS011;4472;52.092;9.820;2022-10-15T12:01:16;4.07;;;3.77;;
8871;SDS011;4472;52.092;9.820;2022-10-15T12:04:09;3.90;;;3.57;;
8871;SDS011;4472;52.092;9.820;2022-10-15T12:07:00;4.80;;;4.40;;
8871;SDS011;4472;52.092;9.820;2022-10-15T12:09:51;3.90;;;3.60;;
8871;SDS011;4472;52.092;9.820;2022-10-15T12:12:45;3.90;;;3.60;;
8871;SDS011;4472;52.092;9.820;2022-10-15T12:15:41;4.17;;;3.87;;
8871;SDS011;4472;52.092;9.820;2022-10-15T12:18:35;4.07;;;3.67;;
8871;SDS011;4472;52.092;9.820;2022-10-15T12:21:29;4.57;;;3.37;;
8871;SDS011;4472;52.092;9.820;2022-10-15T12:27:40;5.67;;;3.43;;
8871;SDS011;4472;52.092;9.820;2022-10-15T12:30:30;4.37;;;3.97;;
8871;SDS011;4472;52.092;9.820;2022-10-15T12:33:22;4.17;;;3.80;;
8871;SDS011;4472;52.092;9.820;2022-10-15T12:36:19;4.00;;;3.70;;
8871;SDS011;4472;52.092;9.820;2022-10-15T12:39:20;3.83;;;3.43;;
8871;SDS011;4472;52.092;9.820;2022-10-15T12:42:16;3.90;;;3.60;;
8871;SDS011;4472;52.092;9.820;2022-10-15T12:45:17;4.00;;;3.70;;
8871;SDS011;4472;52.092;9.820;2022-10-15T12:48:26;4.00;;;3.57;;
8871;SDS011;4472;52.092;9.820;2022-10-15T12:54:32;3.77;;;3.40;;
8871;SDS011;4472;52.092;9.820;2022-10-15T13:00:41;2.83;;;2.63;;
8871;SDS011;4472;52.092;9.820;2022-10-15T13:03:38;3.30;;;2.70;;
8871;SDS011;4472;52.092;9.820;2022-10-15T13:06:32;2.67;;;2.47;;
8871;SDS011;4472;52.092;9.820;2022-10-15T13:09:26;2.33;;;2.13;;
8871;SDS011;4472;52.092;9.820;2022-10-15T13:12:19;2.60;;;2.40;;
8871;SDS011;4472;52.092;9.820;2022-10-15T13:15:09;2.60;;;2.30;;
8871;SDS011;4472;52.092;9.820;2022-10-15T13:18:03;2.17;;;1.83;;
8871;SDS011;4472;52.092;9.820;2022-10-15T13:20:55;2.37;;;2.20;;
8871;SDS011;4472;52.092;9.820;2022-10-15T13:23:44;2.33;;;2.00;;
8871;SDS011;4472;52.092;9.820;2022-10-15T13:26:32;2.30;;;2.10;;
8871;SDS011;4472;52.092;9.820;2022-10-15T13:29:19;2.07;;;1.70;;
8871;SDS011;4472;52.092;9.820;2022-10-15T13:32:09;2.00;;;1.90;;
8871;SDS011;4472;52.092;9.820;2022-10-15T13:35:00;4.13;;;1.73;;
8871;SDS011;4472;52.092;9.820;2022-10-15T13:37:58;1.80;;;1.70;;
8871;SDS011;4472;52.092;9.820;2022-10-15T13:40:47;2.13;;;1.60;;
8871;SDS011;4472;52.092;9.820;2022-10-15T13:43:36;1.30;;;1.30;;
8871;SDS011;4472;52.092;9.820;2022-10-15T13:46:23;1.40;;;1.27;;
8871;SDS011;4472;52.092;9.820;2022-10-15T13:49:12;1.30;;;1.30;;
8871;SDS011;4472;52.092;9.820;2022-10-15T13:51:59;2.27;;;1.37;;
8871;SDS011;4472;52.092;9.820;2022-10-15T13:54:49;1.10;;;1.10;;
8871;SDS011;4472;52.092;9.820;2022-10-15T13:57:36;1.40;;;1.27;;
8871;SDS011;4472;52.092;9.820;2022-10-15T14:00:30;1.10;;;1.10;;
8871;SDS011;4472;52.092;9.820;2022-10-15T14:03:21;1.10;;;1.10;;
8871;SDS011;4472;52.092;9.820;2022-10-15T14:06:13;1.10;;;1.10;;
8871;SDS011;4472;52.092;9.820;2022-10-15T14:09:10;1.30;;;1.20;;
8871;SDS011;4472;52.092;9.820;2022-10-15T14:12:06;1.10;;;1.00;;
8871;SDS011;4472;52.092;9.820;2022-10-15T14:14:53;1.40;;;1.17;;
8871;SDS011;4472;52.092;9.820;2022-10-15T14:17:41;1.00;;;1.00;;
8871;SDS011;4472;52.092;9.820;2022-10-15T14:20:31;3.23;;;1.00;;
8871;SDS011;4472;52.092;9.820;2022-10-15T14:23:19;2.00;;;1.00;;
8871;SDS011;4472;52.092;9.820;2022-10-15T14:26:09;1.33;;;0.90;;
8871;SDS011;4472;52.092;9.820;2022-10-15T14:28:58;1.00;;;1.00;;
8871;SDS011;4472;52.092;9.820;2022-10-15T14:31:47;1.70;;;1.00;;
8871;SDS011;4472;52.092;9.820;2022-10-15T14:34:35;0.90;;;0.90;;
8871;SDS011;4472;52.092;9.820;2022-10-15T14:37:30;4.17;;;1.20;;
8871;SDS011;4472;52.092;9.820;2022-10-15T14:40:28;1.30;;;1.00;;
8871;SDS011;4472;52.092;9.820;2022-10-15T14:43:16;2.57;;;1.00;;
8871;SDS011;4472;52.092;9.820;2022-10-15T14:46:05;2.83;;;1.07;;
8871;SDS011;4472;52.092;9.820;2022-10-15T14:48:58;1.10;;;0.90;;
8871;SDS011;4472;52.092;9.820;2022-10-15T14:51:50;1.10;;;1.10;;
8871;SDS011;4472;52.092;9.820;2022-10-15T14:54:44;1.10;;;1.10;;
8871;SDS011;4472;52.092;9.820;2022-10-15T14:57:34;1.73;;;1.20;;
8871;SDS011;4472;52.092;9.820;2022-10-15T15:00:25;1.30;;;1.30;;
8871;SDS011;4472;52.092;9.820;2022-10-15T15:03:16;1.33;;;1.00;;
8871;SDS011;4472;52.092;9.820;2022-10-15T15:06:05;1.33;;;1.10;;
8871;SDS011;4472;52.092;9.820;2022-10-15T15:08:54;1.20;;;1.20;;
8871;SDS011;4472;52.092;9.820;2022-10-15T15:11:41;3.30;;;1.00;;
8871;SDS011;4472;52.092;9.820;2022-10-15T15:14:28;1.53;;;1.13;;
8871;SDS011;4472;52.092;9.820;2022-10-15T15:17:16;1.60;;;1.20;;
8871;SDS011;4472;52.092;9.820;2022-10-15T15:20:06;1.70;;;1.27;;
8871;SDS011;4472;52.092;9.820;2022-10-15T15:22:55;1.17;;;1.10;;
8871;SDS011;4472;52.092;9.820;2022-10-15T15:25:42;2.83;;;1.10;;
8871;SDS011;4472;52.092;9.820;2022-10-15T15:28:29;1.63;;;1.00;;
8871;SDS011;4472;52.092;9.820;2022-10-15T15:31:17;1.00;;;1.00;;
8871;SDS011;4472;52.092;9.820;2022-10-15T15:34:04;1.37;;;1.00;;
8871;SDS011;4472;52.092;9.820;2022-10-15T15:36:53;1.00;;;1.00;;
8871;SDS011;4472;52.092;9.820;2022-10-15T15:39:40;1.10;;;1.10;;
8871;SDS011;4472;52.092;9.820;2022-10-15T15:42:27;0.80;;;0.80;;
8871;SDS011;4472;52.092;9.820;2022-10-15T15:45:18;0.90;;;0.90;;
8871;SDS011;4472;52.092;9.820;2022-10-15T15:48:07;1.80;;;1.10;;
8871;SDS011;4472;52.092;9.820;2022-10-15T15:50:54;1.70;;;1.00;;
8871;SDS011;4472;52.092;9.820;2022-10-15T15:53:48;1.20;;;1.10;;
8871;SDS011;4472;52.092;9.820;2022-10-15T15:56:36;1.27;;;1.20;;
8871;SDS011;4472;52.092;9.820;2022-10-15T15:59:25;2.13;;;1.07;;
8871;SDS011;4472;52.092;9.820;2022-10-15T16:02:13;1.87;;;1.03;;
8871;SDS011;4472;52.092;9.820;2022-10-15T16:05:00;2.63;;;1.10;;
8871;SDS011;4472;52.092;9.820;2022-10-15T16:07:47;1.20;;;1.00;;
8871;SDS011;4472;52.092;9.820;2022-10-15T16:10:35;1.10;;;1.00;;
8871;SDS011;4472;52.092;9.820;2022-10-15T16:13:22;1.43;;;1.23;;
8871;SDS011;4472;52.092;9.820;2022-10-15T16:16:10;1.20;;;1.10;;
8871;SDS011;4472;52.092;9.820;2022-10-15T16:18:57;3.07;;;1.13;;
8871;SDS011;4472;52.092;9.820;2022-10-15T16:21:44;2.30;;;1.10;;
8871;SDS011;4472;52.092;9.820;2022-10-15T16:24:32;1.40;;;1.00;;
8871;SDS011;4472;52.092;9.820;2022-10-15T16:27:21;1.23;;;0.90;;
8871;SDS011;4472;52.092;9.820;2022-10-15T16:30:08;1.87;;;1.00;;
8871;SDS011;4472;52.092;9.820;2022-10-15T16:32:56;1.13;;;1.03;;
8871;SDS011;4472;52.092;9.820;2022-10-15T16:35:44;0.90;;;0.90;;
8871;SDS011;4472;52.092;9.820;2022-10-15T16:38:37;1.87;;;1.10;;
8871;SDS011;4472;52.092;9.820;2022-10-15T16:41:25;1.60;;;1.00;;
8871;SDS011;4472;52.092;9.820;2022-10-15T16:44:13;1.10;;;1.10;;
8871;SDS011;4472;52.092;9.820;2022-10-15T16:47:01;1.30;;;1.10;;
8871;SDS011;4472;52.092;9.820;2022-10-15T16:49:48;1.00;;;1.00;;
8871;SDS011;4472;52.092;9.820;2022-10-15T16:52:35;1.53;;;1.00;;
8871;SDS011;4472;52.092;9.820;2022-10-15T16:55:22;1.20;;;1.10;;
8871;SDS011;4472;52.092;9.820;2022-10-15T16:58:09;1.00;;;1.00;;
8871;SDS011;4472;52.092;9.820;2022-10-15T17:00:58;1.10;;;1.00;;
8871;SDS011;4472;52.092;9.820;2022-10-15T17:03:46;2.27;;;1.17;;
8871;SDS011;4472;52.092;9.820;2022-10-15T17:06:34;1.83;;;1.00;;
8871;SDS011;4472;52.092;9.820;2022-10-15T17:09:21;2.20;;;1.10;;
8871;SDS011;4472;52.092;9.820;2022-10-15T17:12:08;1.67;;;1.03;;
8871;SDS011;4472;52.092;9.820;2022-10-15T17:14:56;1.33;;;1.10;;
8871;SDS011;4472;52.092;9.820;2022-10-15T17:17:44;1.10;;;1.10;;
8871;SDS011;4472;52.092;9.820;2022-10-15T17:20:31;3.13;;;1.30;;
8871;SDS011;4472;52.092;9.820;2022-10-15T17:23:19;1.20;;;1.20;;
8871;SDS011;4472;52.092;9.820;2022-10-15T17:26:07;1.30;;;1.30;;
8871;SDS011;4472;52.092;9.820;2022-10-15T17:28:57;1.20;;;1.20;;
8871;SDS011;4472;52.092;9.820;2022-10-15T17:31:45;1.30;;;1.30;;
8871;SDS011;4472;52.092;9.820;2022-10-15T17:34:34;2.20;;;1.20;;